Time;durP1;ratioP1;P1;durP2;ratioP2;P2;SDS_P1;SDS_P2;PMS_P1;PMS_P2;Temp;Humidity;BMP_temperature;BMP_pressure;BME280_temperature;BME280_humidity;BME280_pressure;Samples;Min_cycle;Max_cycle;Signal;HPM_P1;HPM_P2
2020/12/21 00:00:40;;;;;;;1.77;1.20;;;3.80;99.90;;;;;;2080846;28;20236;-61
2020/12/21 00:01:50;;;;;;;2.70;1.40;;;3.90;99.90;;;;;;2080709;28;20186;-61
2020/12/21 00:02:50;;;;;;;4.35;1.50;;;3.90;99.90;;;;;;2080954;28;20207;-60
2020/12/21 00:03:51;;;;;;;3.30;1.40;;;3.90;99.90;;;;;;2080832;28;20183;-61
2020/12/21 00:04:52;;;;;;;1.63;1.30;;;3.90;99.90;;;;;;2080728;28;20231;-60
2020/12/21 00:05:52;;;;;;;2.53;1.40;;;3.90;99.90;;;;;;2080840;28;20188;-59
2020/12/21 00:06:58;;;;;;;2.23;1.40;;;4.00;99.90;;;;;;2080885;28;20654;-60
2020/12/21 00:08:02;;;;;;;4.70;1.40;;;4.00;99.90;;;;;;2080834;28;20557;-61
2020/12/21 00:09:03;;;;;;;2.17;1.30;;;4.10;99.90;;;;;;2080825;28;20188;-61
2020/12/21 00:10:05;;;;;;;4.93;1.10;;;4.10;99.90;;;;;;2080622;28;20186;-61
2020/12/21 00:11:06;;;;;;;4.18;1.42;;;4.10;99.90;;;;;;2080579;28;20637;-61
2020/12/21 00:12:06;;;;;;;2.60;1.30;;;4.20;99.90;;;;;;2080933;28;20214;-61
2020/12/21 00:13:07;;;;;;;4.10;1.23;;;4.20;99.90;;;;;;2080706;28;20708;-59
2020/12/21 00:14:08;;;;;;;4.17;1.30;;;4.20;99.90;;;;;;2084340;28;20209;-60
2020/12/21 00:15:09;;;;;;;2.78;1.30;;;4.20;99.90;;;;;;2088678;28;20234;-59
2020/12/21 00:16:11;;;;;;;4.17;1.30;;;4.20;99.90;;;;;;2088987;28;20557;-60
2020/12/21 00:17:12;;;;;;;3.05;1.33;;;4.20;99.90;;;;;;2088959;28;20665;-61
2020/12/21 00:18:13;;;;;;;2.03;1.20;;;4.30;99.90;;;;;;2088963;28;20187;-59
2020/12/21 00:19:18;;;;;;;2.37;1.40;;;4.30;99.90;;;;;;2088974;28;20187;-61
2020/12/21 00:20:19;;;;;;;3.45;1.25;;;4.30;99.90;;;;;;2088853;28;20202;-61
2020/12/21 00:21:20;;;;;;;2.67;1.10;;;4.40;99.90;;;;;;2088702;28;20574;-60
2020/12/21 00:22:20;;;;;;;1.93;1.00;;;4.40;99.90;;;;;;2088986;28;20262;-61
2020/12/21 00:23:21;;;;;;;4.23;1.40;;;4.50;99.90;;;;;;2088893;28;20271;-60
2020/12/21 00:24:22;;;;;;;4.23;1.47;;;4.50;99.90;;;;;;2088876;28;20259;-59
2020/12/21 00:25:22;;;;;;;4.40;1.30;;;4.50;99.90;;;;;;2088754;28;20293;-61
2020/12/21 00:26:23;;;;;;;3.10;1.20;;;4.60;99.90;;;;;;2088895;28;20172;-62
2020/12/21 00:27:24;;;;;;;2.83;1.30;;;4.60;99.90;;;;;;2089063;28;20577;-60
2020/12/21 00:28:24;;;;;;;2.93;1.30;;;4.60;99.90;;;;;;2089034;28;20262;-60
2020/12/21 00:29:25;;;;;;;1.90;1.20;;;4.70;99.90;;;;;;2088907;28;20253;-59
2020/12/21 00:30:26;;;;;;;2.50;1.40;;;4.70;99.90;;;;;;2089020;28;20554;-61
2020/12/21 00:31:32;;;;;;;3.00;1.20;;;4.80;99.90;;;;;;2088540;28;20261;-61
2020/12/21 00:32:33;;;;;;;2.08;1.20;;;4.80;99.90;;;;;;2088943;28;20615;-60
2020/12/21 00:33:34;;;;;;;4.10;1.30;;;4.80;99.90;;;;;;2088778;28;20639;-61
2020/12/21 00:34:35;;;;;;;2.73;1.00;;;4.80;99.90;;;;;;2088898;28;20190;-59
2020/12/21 00:35:35;;;;;;;2.37;1.00;;;4.90;99.90;;;;;;2088877;28;20886;-61
2020/12/21 00:36:41;;;;;;;2.53;1.10;;;4.90;99.90;;;;;;2088940;28;20207;-61
2020/12/21 00:37:42;;;;;;;4.18;1.30;;;4.90;99.90;;;;;;2088643;28;20176;-60
2020/12/21 00:38:43;;;;;;;1.90;1.20;;;4.90;99.90;;;;;;2088901;28;20257;-60
2020/12/21 00:39:44;;;;;;;2.63;1.30;;;4.90;99.90;;;;;;2088817;28;20266;-60
2020/12/21 00:40:44;;;;;;;1.50;1.30;;;4.90;99.90;;;;;;2088957;28;20206;-60
2020/12/21 00:41:45;;;;;;;2.27;1.40;;;4.90;99.90;;;;;;2088630;28;20203;-61
2020/12/21 00:42:46;;;;;;;1.73;1.20;;;4.90;99.90;;;;;;2089630;28;20192;-61
2020/12/21 00:43:49;;;;;;;1.77;1.30;;;4.90;99.90;;;;;;2090370;28;20195;-60
2020/12/21 00:44:49;;;;;;;3.97;1.45;;;4.90;99.90;;;;;;2090192;28;20195;-60
2020/12/21 00:45:50;;;;;;;4.70;1.80;;;4.90;99.90;;;;;;2090550;28;20657;-60
2020/12/21 00:46:51;;;;;;;6.77;1.37;;;4.90;99.90;;;;;;2090555;28;20255;-61
2020/12/21 00:47:51;;;;;;;3.67;1.37;;;4.80;99.90;;;;;;2090542;28;20671;-61
2020/12/21 00:48:53;;;;;;;3.17;1.30;;;4.80;99.90;;;;;;2090401;28;20270;-61
2020/12/21 00:49:54;;;;;;;3.58;1.27;;;4.80;99.90;;;;;;2090505;28;20720;-60
2020/12/21 00:50:55;;;;;;;3.57;1.13;;;4.90;99.90;;;;;;2090238;28;20263;-60
2020/12/21 00:51:55;;;;;;;1.30;1.10;;;4.90;99.90;;;;;;2090588;28;20819;-61
2020/12/21 00:52:56;;;;;;;4.73;1.60;;;4.90;99.90;;;;;;2090673;28;20422;-60
2020/12/21 00:53:57;;;;;;;3.37;1.60;;;4.90;99.90;;;;;;2090346;28;20205;-61
2020/12/21 00:54:58;;;;;;;2.67;1.27;;;4.90;99.90;;;;;;2090327;28;20203;-61
2020/12/21 00:56:03;;;;;;;4.30;1.73;;;4.90;99.90;;;;;;2090449;28;20423;-60
2020/12/21 00:57:04;;;;;;;6.13;1.60;;;4.90;99.90;;;;;;2090482;28;20258;-60
2020/12/21 00:58:04;;;;;;;3.70;1.30;;;4.90;99.90;;;;;;2090546;28;20187;-60
2020/12/21 00:59:05;;;;;;;3.30;1.43;;;4.90;99.90;;;;;;2090275;28;20183;-60
2020/12/21 01:00:08;;;;;;;3.70;1.50;;;4.90;99.90;;;;;;2090359;28;20206;-61
2020/12/21 01:01:13;;;;;;;7.25;1.75;;;4.90;99.90;;;;;;2090060;28;20569;-60
2020/12/21 01:02:13;;;;;;;3.80;1.60;;;4.80;99.90;;;;;;2090475;28;20308;-60
2020/12/21 01:03:15;;;;;;;1.60;1.30;;;4.80;99.90;;;;;;2090361;28;20180;-60
2020/12/21 01:04:15;;;;;;;3.17;1.70;;;4.70;99.90;;;;;;2090710;28;20205;-61
2020/12/21 01:05:16;;;;;;;3.93;1.10;;;4.70;99.90;;;;;;2090026;28;20206;-61
2020/12/21 01:06:17;;;;;;;4.00;1.17;;;4.60;99.90;;;;;;2090318;28;20219;-61
2020/12/21 01:07:18;;;;;;;3.70;1.30;;;4.60;99.90;;;;;;2090302;28;20209;-60
2020/12/21 01:08:18;;;;;;;2.83;1.27;;;4.70;99.90;;;;;;2090415;28;20241;-58
2020/12/21 01:09:19;;;;;;;1.77;1.10;;;4.70;99.90;;;;;;2090320;28;20528;-60
2020/12/21 01:10:20;;;;;;;2.37;1.10;;;4.70;99.90;;;;;;2090181;28;20188;-60
2020/12/21 01:11:20;;;;;;;3.77;1.00;;;4.70;99.90;;;;;;2090058;28;20188;-59
2020/12/21 01:12:21;;;;;;;4.73;1.10;;;4.70;99.90;;;;;;2090239;28;20184;-61
2020/12/21 01:13:22;;;;;;;2.40;1.07;;;4.60;99.90;;;;;;2090159;28;20181;-63
2020/12/21 01:14:23;;;;;;;2.73;0.90;;;4.70;99.90;;;;;;2090332;28;20638;-61
2020/12/21 01:15:23;;;;;;;1.93;1.00;;;4.60;99.90;;;;;;2090111;28;20214;-59
2020/12/21 01:16:25;;;;;;;2.73;0.93;;;4.60;99.90;;;;;;2090229;28;20194;-60
2020/12/21 01:17:31;;;;;;;2.00;1.20;;;4.70;99.90;;;;;;2090165;28;20184;-60
2020/12/21 01:18:32;;;;;;;5.68;1.40;;;4.70;99.90;;;;;;2090271;28;20266;-61
2020/12/21 01:19:32;;;;;;;3.87;1.00;;;4.70;99.90;;;;;;2089346;28;20184;-60
2020/12/21 01:20:34;;;;;;;4.00;1.00;;;4.70;99.90;;;;;;2089518;28;20466;-62
2020/12/21 01:21:34;;;;;;;4.10;1.20;;;4.70;99.90;;;;;;2089658;28;20176;-60
2020/12/21 01:22:35;;;;;;;1.47;1.03;;;4.80;99.90;;;;;;2090396;28;20198;-62
2020/12/21 01:23:36;;;;;;;3.83;1.23;;;4.80;99.90;;;;;;2090159;28;20708;-62
2020/12/21 01:24:40;;;;;;;2.93;1.20;;;4.70;99.90;;;;;;2090070;28;20174;-62
2020/12/21 01:25:40;;;;;;;3.33;1.48;;;4.70;99.90;;;;;;2090323;28;20168;-61
2020/12/21 01:26:41;;;;;;;4.57;1.50;;;4.60;99.90;;;;;;2090122;28;20218;-62
2020/12/21 01:27:42;;;;;;;2.87;1.47;;;4.60;99.90;;;;;;2090052;28;20209;-62
2020/12/21 01:28:43;;;;;;;2.03;1.50;;;4.50;99.90;;;;;;2090300;28;20655;-60
2020/12/21 01:29:43;;;;;;;2.53;1.40;;;4.50;99.90;;;;;;2090152;28;20175;-62
2020/12/21 01:30:44;;;;;;;2.43;1.57;;;4.50;99.90;;;;;;2090177;28;20193;-62
2020/12/21 01:31:45;;;;;;;5.53;1.55;;;4.60;99.90;;;;;;2089766;28;20523;-62
2020/12/21 01:32:46;;;;;;;2.77;1.70;;;4.50;99.90;;;;;;2090090;28;20184;-62
2020/12/21 01:33:48;;;;;;;3.00;1.50;;;4.50;99.90;;;;;;2090113;28;20218;-61
2020/12/21 01:34:49;;;;;;;3.75;1.50;;;4.50;99.90;;;;;;2090016;28;20285;-62
2020/12/21 01:35:50;;;;;;;3.43;1.40;;;4.50;99.90;;;;;;2090142;28;20550;-62
2020/12/21 01:36:50;;;;;;;2.40;1.30;;;4.50;99.90;;;;;;2090231;28;20199;-62
2020/12/21 01:37:51;;;;;;;4.43;1.40;;;4.50;99.90;;;;;;2089738;28;20191;-62
2020/12/21 01:38:52;;;;;;;6.10;1.60;;;4.50;99.90;;;;;;2090211;28;20196;-62
2020/12/21 01:39:52;;;;;;;3.00;1.33;;;4.50;99.90;;;;;;2090074;28;20234;-62
2020/12/21 01:40:53;;;;;;;4.10;1.43;;;4.50;99.90;;;;;;2089827;28;20184;-62
2020/12/21 01:41:54;;;;;;;6.40;1.20;;;4.50;99.90;;;;;;2090202;28;20183;-61
2020/12/21 01:42:54;;;;;;;3.53;1.73;;;4.50;99.90;;;;;;2090292;28;20180;-61
2020/12/21 01:43:56;;;;;;;3.83;1.27;;;4.50;99.90;;;;;;2090197;28;20178;-61
2020/12/21 01:44:56;;;;;;;2.50;1.30;;;4.60;99.90;;;;;;2090154;28;20546;-61
2020/12/21 01:46:07;;;;;;;4.73;1.27;;;4.60;99.90;;;;;;2090179;28;20227;-63
2020/12/21 01:47:07;;;;;;;1.98;1.10;;;4.60;99.90;;;;;;2090266;28;20172;-62
2020/12/21 01:48:09;;;;;;;3.50;1.13;;;4.60;99.90;;;;;;2089420;28;20274;-69
2020/12/21 01:49:11;;;;;;;4.65;1.55;;;4.60;99.90;;;;;;2089537;28;20722;-61
2020/12/21 01:50:13;;;;;;;3.05;1.83;;;4.60;99.90;;;;;;2097647;28;20187;-60
2020/12/21 01:51:22;;;;;;;4.97;1.17;;;4.70;99.90;;;;;;2097253;28;20185;-60
2020/12/21 01:52:23;;;;;;;4.38;1.45;;;4.70;99.90;;;;;;2090163;28;20221;-61
2020/12/21 01:53:24;;;;;;;5.33;1.20;;;4.70;99.90;;;;;;2089460;28;20179;-62
2020/12/21 01:54:25;;;;;;;2.70;1.30;;;4.70;99.90;;;;;;2088535;28;20172;-60
2020/12/21 01:55:27;;;;;;;3.53;1.17;;;4.70;99.90;;;;;;2089384;28;20233;-61
2020/12/21 01:56:29;;;;;;;3.97;1.23;;;4.70;99.90;;;;;;2089561;28;20272;-61
2020/12/21 01:57:30;;;;;;;2.53;1.00;;;4.70;99.90;;;;;;2089394;28;20226;-58
2020/12/21 01:58:32;;;;;;;6.13;1.27;;;4.80;99.90;;;;;;2089525;28;20550;-60
2020/12/21 01:59:33;;;;;;;2.95;1.15;;;4.70;99.90;;;;;;2097334;28;20704;-59
2020/12/21 02:00:34;;;;;;;4.50;1.30;;;4.80;99.90;;;;;;2097732;28;20238;-60
2020/12/21 02:01:36;;;;;;;3.53;1.75;;;4.70;99.90;;;;;;2089706;28;20171;-61
2020/12/21 02:02:37;;;;;;;4.32;1.20;;;4.70;99.90;;;;;;2090036;28;20661;-61
2020/12/21 02:03:38;;;;;;;2.37;1.30;;;4.80;99.90;;;;;;2089820;28;20262;-60
2020/12/21 02:04:39;;;;;;;3.63;1.17;;;4.60;99.90;;;;;;2089849;28;20257;-61
2020/12/21 02:05:39;;;;;;;2.33;0.97;;;4.60;99.90;;;;;;2089844;28;20865;-60
2020/12/21 02:06:40;;;;;;;4.00;1.47;;;4.60;99.90;;;;;;2089264;28;20175;-60
2020/12/21 02:07:42;;;;;;;1.40;1.17;;;4.60;99.90;;;;;;2080723;28;20188;-60
2020/12/21 02:08:42;;;;;;;2.17;1.40;;;4.60;99.90;;;;;;2089284;28;20189;-61
2020/12/21 02:09:43;;;;;;;2.23;1.30;;;4.60;99.90;;;;;;2089272;28;20206;-61
2020/12/21 02:10:44;;;;;;;3.97;1.53;;;4.50;99.90;;;;;;2089841;28;20204;-61
2020/12/21 02:11:45;;;;;;;4.32;1.27;;;4.50;99.90;;;;;;2089825;28;20173;-61
2020/12/21 02:12:45;;;;;;;2.67;1.40;;;4.50;99.90;;;;;;2090069;28;20187;-60
2020/12/21 02:13:46;;;;;;;3.77;1.63;;;4.50;99.90;;;;;;2089137;28;20179;-58
2020/12/21 02:14:47;;;;;;;3.50;1.20;;;4.40;99.90;;;;;;2089246;28;20654;-60
2020/12/21 02:15:48;;;;;;;4.77;1.30;;;4.40;99.90;;;;;;2089675;28;20262;-60
2020/12/21 02:16:48;;;;;;;6.27;1.20;;;4.40;99.90;;;;;;2089890;28;20620;-60
2020/12/21 02:17:49;;;;;;;4.37;1.87;;;4.30;99.90;;;;;;2089621;28;20174;-61
2020/12/21 02:18:50;;;;;;;5.90;1.57;;;4.30;99.90;;;;;;2089888;28;20231;-59
2020/12/21 02:19:51;;;;;;;4.83;1.40;;;4.20;99.90;;;;;;2089607;28;20178;-60
2020/12/21 02:20:52;;;;;;;3.50;1.60;;;4.20;99.90;;;;;;2089406;28;20179;-61
2020/12/21 02:21:52;;;;;;;2.53;1.27;;;4.20;99.90;;;;;;2089948;28;20187;-60
2020/12/21 02:22:53;;;;;;;4.10;1.30;;;4.10;99.90;;;;;;2097533;28;20595;-61
2020/12/21 02:23:54;;;;;;;2.13;1.30;;;4.10;99.90;;;;;;2097438;28;20183;-60
2020/12/21 02:24:55;;;;;;;4.37;1.40;;;4.10;99.90;;;;;;2089701;28;20234;-58
2020/12/21 02:25:55;;;;;;;6.73;1.57;;;4.00;99.90;;;;;;2089613;28;20227;-60
2020/12/21 02:26:56;;;;;;;2.30;1.37;;;4.00;99.90;;;;;;2089615;28;20178;-61
2020/12/21 02:27:57;;;;;;;5.03;1.60;;;3.90;99.90;;;;;;2089787;28;20264;-60
2020/12/21 02:28:59;;;;;;;4.43;2.17;;;3.90;99.90;;;;;;2089754;28;20578;-60
2020/12/21 02:30:00;;;;;;;3.25;2.00;;;3.90;99.90;;;;;;2089656;28;20184;-59
2020/12/21 02:31:00;;;;;;;4.80;1.57;;;3.90;99.90;;;;;;2089459;28;20179;-60
2020/12/21 02:32:01;;;;;;;2.90;1.53;;;4.00;99.90;;;;;;2089446;28;20229;-60
2020/12/21 02:33:05;;;;;;;3.97;1.27;;;4.10;99.90;;;;;;2089665;28;20247;-61
2020/12/21 02:34:06;;;;;;;1.77;0.95;;;4.10;99.90;;;;;;2089789;28;20190;-60
2020/12/21 02:35:07;;;;;;;2.50;1.20;;;4.10;99.90;;;;;;2089703;28;20202;-60
2020/12/21 02:36:07;;;;;;;2.67;0.90;;;4.30;99.90;;;;;;2089565;28;20262;-60
2020/12/21 02:37:08;;;;;;;5.93;1.73;;;4.30;99.90;;;;;;2088966;28;20256;-61
2020/12/21 02:38:09;;;;;;;2.30;1.10;;;4.30;99.90;;;;;;2089174;28;20195;-60
2020/12/21 02:39:10;;;;;;;2.60;1.10;;;4.30;99.90;;;;;;2089519;28;20264;-60
2020/12/21 02:40:11;;;;;;;3.67;0.97;;;4.30;99.90;;;;;;2089766;28;20217;-60
2020/12/21 02:41:18;;;;;;;2.13;1.20;;;4.40;99.90;;;;;;2089384;28;20723;-60
2020/12/21 02:42:19;;;;;;;4.22;1.40;;;4.40;99.90;;;;;;2089684;28;20176;-59
2020/12/21 02:43:20;;;;;;;1.87;1.10;;;4.40;99.90;;;;;;2089211;28;20206;-60
2020/12/21 02:44:21;;;;;;;3.78;1.20;;;4.40;99.90;;;;;;2089516;28;20638;-60
2020/12/21 02:45:22;;;;;;;3.83;1.10;;;4.40;99.90;;;;;;2089334;28;20237;-60
2020/12/21 02:46:22;;;;;;;3.83;1.07;;;4.30;99.90;;;;;;2089677;28;20256;-61
2020/12/21 02:47:23;;;;;;;4.80;1.00;;;4.30;99.90;;;;;;2089519;28;20203;-60
2020/12/21 02:48:24;;;;;;;1.60;0.90;;;4.30;99.90;;;;;;2089390;28;20185;-60
2020/12/21 02:49:24;;;;;;;3.20;1.00;;;4.30;99.90;;;;;;2089494;28;20569;-61
2020/12/21 02:50:25;;;;;;;2.67;1.10;;;4.30;99.90;;;;;;2089737;28;20224;-61
2020/12/21 02:51:26;;;;;;;4.03;1.13;;;4.30;99.90;;;;;;2089107;28;20198;-61
2020/12/21 02:52:30;;;;;;;3.50;1.03;;;4.20;99.90;;;;;;2088925;28;20195;-61
2020/12/21 02:53:31;;;;;;;5.15;1.17;;;4.20;99.90;;;;;;2088716;28;20190;-60
2020/12/21 02:54:32;;;;;;;2.78;1.20;;;4.20;99.90;;;;;;2089563;28;20499;-60
2020/12/21 02:55:33;;;;;;;5.70;1.47;;;4.10;99.90;;;;;;2089384;28;20209;-60
2020/12/21 02:56:33;;;;;;;4.43;1.10;;;4.10;99.90;;;;;;2089513;28;20187;-60
2020/12/21 02:57:34;;;;;;;2.67;1.00;;;4.00;99.90;;;;;;2089592;28;20175;-60
2020/12/21 02:58:35;;;;;;;5.13;1.17;;;3.90;99.90;;;;;;2089522;28;20270;-60
2020/12/21 02:59:35;;;;;;;4.70;1.20;;;3.90;99.90;;;;;;2089328;28;20207;-60
2020/12/21 03:00:36;;;;;;;2.73;1.00;;;3.80;99.90;;;;;;2089578;28;20203;-61
2020/12/21 03:01:37;;;;;;;3.73;1.27;;;3.80;99.90;;;;;;2089191;28;20217;-60
2020/12/21 03:02:37;;;;;;;3.33;1.20;;;3.80;99.90;;;;;;2089592;28;20189;-61
2020/12/21 03:03:38;;;;;;;5.47;1.20;;;3.70;99.90;;;;;;2089304;28;20184;-60
2020/12/21 03:04:39;;;;;;;2.77;1.17;;;3.70;99.90;;;;;;2089294;28;20597;-60
2020/12/21 03:05:40;;;;;;;3.70;1.20;;;3.70;99.90;;;;;;2089090;28;20216;-61
2020/12/21 03:06:41;;;;;;;3.85;0.90;;;3.70;99.90;;;;;;2089508;28;20259;-61
2020/12/21 03:07:42;;;;;;;4.87;2.10;;;3.60;99.90;;;;;;2089419;28;20186;-59
2020/12/21 03:08:43;;;;;;;5.30;0.83;;;3.50;99.90;;;;;;2089450;28;20412;-61
2020/12/21 03:09:44;;;;;;;3.00;1.17;;;3.50;99.90;;;;;;2089462;28;20677;-60
2020/12/21 03:10:44;;;;;;;5.27;1.43;;;3.50;99.90;;;;;;2088733;28;20192;-59
2020/12/21 03:11:46;;;;;;;1.57;1.10;;;3.40;99.90;;;;;;2088562;28;20202;-60
2020/12/21 03:12:47;;;;;;;3.60;1.20;;;3.30;99.90;;;;;;2089434;28;20192;-60
2020/12/21 03:13:48;;;;;;;7.30;1.53;;;3.20;99.90;;;;;;2089490;28;20188;-60
2020/12/21 03:14:49;;;;;;;3.20;1.07;;;3.20;99.90;;;;;;2089511;28;20729;-60
2020/12/21 03:15:50;;;;;;;1.90;1.10;;;3.10;99.90;;;;;;2089100;28;20215;-61
2020/12/21 03:16:50;;;;;;;5.50;1.30;;;3.00;99.90;;;;;;2089552;28;20195;-60
2020/12/21 03:17:51;;;;;;;3.77;1.10;;;3.00;99.90;;;;;;2089434;28;20274;-60
2020/12/21 03:18:52;;;;;;;3.23;1.30;;;2.90;99.90;;;;;;2089463;28;20212;-60
2020/12/21 03:19:52;;;;;;;4.67;1.40;;;2.80;99.90;;;;;;2089397;28;20206;-61
2020/12/21 03:20:53;;;;;;;2.23;1.10;;;2.80;99.90;;;;;;2089286;28;20661;-60
2020/12/21 03:21:54;;;;;;;5.37;1.43;;;2.80;99.90;;;;;;2089377;28;20235;-60
2020/12/21 03:22:54;;;;;;;2.20;1.30;;;2.70;99.90;;;;;;2089338;28;20264;-60
2020/12/21 03:23:55;;;;;;;2.83;1.20;;;2.60;99.90;;;;;;2089656;28;20196;-60
2020/12/21 03:24:57;;;;;;;4.40;1.20;;;2.60;99.90;;;;;;2089244;28;20204;-59
2020/12/21 03:25:57;;;;;;;4.22;1.35;;;2.60;99.90;;;;;;2089479;28;20178;-61
2020/12/21 03:26:58;;;;;;;3.53;1.10;;;2.50;99.90;;;;;;2089099;28;20212;-60
2020/12/21 03:27:59;;;;;;;4.33;1.00;;;2.50;99.90;;;;;;2089412;28;20207;-59
2020/12/21 03:29:00;;;;;;;4.80;1.30;;;2.50;99.90;;;;;;2089396;28;20255;-60
2020/12/21 03:30:00;;;;;;;3.43;1.40;;;2.50;99.90;;;;;;2089590;28;20180;-61
2020/12/21 03:31:01;;;;;;;4.13;1.40;;;2.40;99.90;;;;;;2089172;28;20172;-60
2020/12/21 03:32:02;;;;;;;4.87;1.43;;;2.40;99.90;;;;;;2089327;28;20172;-61
2020/12/21 03:33:03;;;;;;;3.37;1.20;;;2.30;99.90;;;;;;2089342;28;20256;-58
2020/12/21 03:34:03;;;;;;;5.30;1.40;;;2.30;99.90;;;;;;2089360;28;20660;-59
2020/12/21 03:35:06;;;;;;;2.50;1.27;;;2.30;99.90;;;;;;2089188;28;20197;-60
2020/12/21 03:36:07;;;;;;;3.47;1.35;;;2.30;99.90;;;;;;2089444;28;20199;-58
2020/12/21 03:37:07;;;;;;;3.63;1.50;;;2.30;99.90;;;;;;2089242;28;20227;-60
2020/12/21 03:38:08;;;;;;;3.87;1.50;;;2.20;99.90;;;;;;2089325;28;20191;-59
2020/12/21 03:39:09;;;;;;;4.67;1.60;;;2.20;99.90;;;;;;2089442;28;20215;-60
2020/12/21 03:40:09;;;;;;;3.43;1.27;;;2.20;99.90;;;;;;2089419;28;20239;-59
2020/12/21 03:41:10;;;;;;;5.33;1.30;;;2.10;99.90;;;;;;2089223;28;20649;-60
2020/12/21 03:42:11;;;;;;;5.20;1.37;;;2.10;99.90;;;;;;2089569;28;20211;-60
2020/12/21 03:43:12;;;;;;;7.77;1.50;;;2.10;99.90;;;;;;2089258;28;20670;-61
2020/12/21 03:44:12;;;;;;;3.53;1.33;;;2.00;99.90;;;;;;2081466;28;20209;-60
2020/12/21 03:45:13;;;;;;;5.63;1.40;;;2.00;99.90;;;;;;2081056;28;20215;-60
2020/12/21 03:46:14;;;;;;;5.33;1.70;;;2.00;99.90;;;;;;2080864;28;20205;-61
2020/12/21 03:47:14;;;;;;;5.60;1.50;;;2.00;99.90;;;;;;2081036;28;20774;-61
2020/12/21 03:48:15;;;;;;;3.40;1.60;;;2.00;99.90;;;;;;2080758;28;20235;-60
2020/12/21 03:49:16;;;;;;;4.07;1.35;;;1.90;99.90;;;;;;2080999;28;20177;-61
2020/12/21 03:50:18;;;;;;;4.63;1.57;;;1.90;99.90;;;;;;2081125;28;20177;-60
2020/12/21 03:51:19;;;;;;;5.22;1.50;;;1.90;99.90;;;;;;2081102;28;20183;-59
2020/12/21 03:52:20;;;;;;;4.03;1.57;;;1.90;99.90;;;;;;2081095;28;20670;-66
2020/12/21 03:53:20;;;;;;;5.37;1.60;;;1.90;99.90;;;;;;2081234;28;20205;-60
2020/12/21 03:54:22;;;;;;;5.97;1.77;;;1.80;99.90;;;;;;2081059;28;20180;-61
2020/12/21 03:55:23;;;;;;;5.55;1.55;;;1.80;99.90;;;;;;2081225;28;20284;-61
2020/12/21 03:56:24;;;;;;;3.73;1.37;;;1.80;99.90;;;;;;2081086;28;20192;-61
2020/12/21 03:57:24;;;;;;;5.77;1.63;;;1.70;99.90;;;;;;2081115;28;20227;-61
2020/12/21 03:58:25;;;;;;;3.00;1.30;;;1.70;99.90;;;;;;2080946;28;20181;-61
2020/12/21 03:59:26;;;;;;;12.23;1.90;;;1.70;99.90;;;;;;2080858;28;20185;-60
2020/12/21 04:00:27;;;;;;;2.80;1.47;;;1.40;99.90;;;;;;2080715;28;20212;-60
2020/12/21 04:01:28;;;;;;;4.43;1.70;;;1.60;99.90;;;;;;2080695;28;20204;-60
2020/12/21 04:02:28;;;;;;;3.47;1.63;;;1.60;99.90;;;;;;2080906;28;20632;-58
2020/12/21 04:03:30;;;;;;;6.83;2.30;;;1.60;99.90;;;;;;2081015;28;20180;-60
2020/12/21 04:04:31;;;;;;;5.40;2.10;;;1.60;99.90;;;;;;2080788;28;20556;-60
2020/12/21 04:05:31;;;;;;;7.10;2.20;;;1.60;99.90;;;;;;2081077;28;20188;-60
2020/12/21 04:06:36;;;;;;;8.27;2.57;;;1.60;99.90;;;;;;2080937;28;20659;-59
2020/12/21 04:07:37;;;;;;;9.88;2.20;;;1.70;99.90;;;;;;2080468;28;20176;-60
2020/12/21 04:08:38;;;;;;;4.30;2.00;;;1.70;99.90;;;;;;2080342;28;20189;-59
2020/12/21 04:09:38;;;;;;;5.40;2.00;;;1.70;99.90;;;;;;2080680;28;20173;-60
2020/12/21 04:10:40;;;;;;;4.47;2.60;;;1.70;99.90;;;;;;2081023;28;20645;-61
2020/12/21 04:11:41;;;;;;;4.10;1.80;;;1.60;99.90;;;;;;2080706;28;20207;-59
2020/12/21 04:12:41;;;;;;;4.77;2.20;;;1.60;99.90;;;;;;2087716;28;20561;-60
2020/12/21 04:13:42;;;;;;;5.00;2.13;;;1.60;99.90;;;;;;2089114;28;20185;-61
2020/12/21 04:14:43;;;;;;;5.83;1.87;;;1.60;99.90;;;;;;2089094;28;20184;-61
2020/12/21 04:15:43;;;;;;;6.27;1.90;;;1.60;99.90;;;;;;2088979;28;20188;-61
2020/12/21 04:16:44;;;;;;;5.73;2.20;;;1.50;99.90;;;;;;2089167;28;20204;-60
2020/12/21 04:17:45;;;;;;;4.10;1.80;;;1.50;99.90;;;;;;2089785;28;20593;-61
2020/12/21 04:18:45;;;;;;;8.43;2.07;;;1.50;99.90;;;;;;2090681;28;20180;-61
2020/12/21 04:19:46;;;;;;;4.63;1.97;;;1.50;99.90;;;;;;2090800;28;20192;-61
2020/12/21 04:20:47;;;;;;;5.80;2.20;;;1.50;99.90;;;;;;2090618;28;20585;-61
2020/12/21 04:21:47;;;;;;;7.00;2.53;;;1.60;99.90;;;;;;2090565;28;20207;-60
2020/12/21 04:22:48;;;;;;;7.80;2.50;;;1.60;99.90;;;;;;2090664;28;20603;-61
2020/12/21 04:23:49;;;;;;;5.90;3.10;;;1.60;99.90;;;;;;2090603;28;20187;-61
2020/12/21 04:24:50;;;;;;;7.13;2.90;;;1.60;99.90;;;;;;2090780;28;20208;-62
2020/12/21 04:25:50;;;;;;;4.93;2.10;;;1.60;99.90;;;;;;2090560;28;20594;-61
2020/12/21 04:26:51;;;;;;;4.37;2.30;;;1.60;99.90;;;;;;2090824;28;20208;-61
2020/12/21 04:27:52;;;;;;;5.13;2.27;;;1.60;99.90;;;;;;2090691;28;20593;-60
2020/12/21 04:28:52;;;;;;;5.03;2.30;;;1.60;99.90;;;;;;2090828;28;20177;-61
2020/12/21 04:29:53;;;;;;;5.40;2.33;;;1.60;99.90;;;;;;2090584;28;20176;-61
2020/12/21 04:30:54;;;;;;;14.43;3.17;;;1.60;99.90;;;;;;2090606;28;20177;-61
2020/12/21 04:31:55;;;;;;;7.60;3.27;;;1.60;99.90;;;;;;2090484;28;20230;-61
2020/12/21 04:32:56;;;;;;;8.50;3.47;;;1.60;99.90;;;;;;2090788;28;20259;-61
2020/12/21 04:33:57;;;;;;;13.50;4.30;;;1.60;99.90;;;;;;2090515;28;20184;-60
2020/12/21 04:34:57;;;;;;;9.00;3.47;;;1.50;99.90;;;;;;2090730;28;20219;-59
2020/12/21 04:35:58;;;;;;;6.20;2.77;;;1.50;99.90;;;;;;2090747;28;20188;-60
2020/12/21 04:36:59;;;;;;;7.10;3.43;;;1.50;99.90;;;;;;2090505;28;20243;-61
2020/12/21 04:37:59;;;;;;;5.80;2.43;;;1.40;99.90;;;;;;2090677;28;20172;-61
2020/12/21 04:39:00;;;;;;;9.20;2.97;;;1.40;99.90;;;;;;2090609;28;20663;-60
2020/12/21 04:40:01;;;;;;;6.45;2.70;;;1.30;99.90;;;;;;2090383;28;20177;-59
2020/12/21 04:41:02;;;;;;;8.10;4.30;;;1.30;99.90;;;;;;2090351;28;20631;-61
2020/12/21 04:42:03;;;;;;;6.27;3.37;;;1.30;99.90;;;;;;2090156;28;20213;-60
2020/12/21 04:43:04;;;;;;;9.90;2.77;;;1.30;99.90;;;;;;2090238;28;20701;-61
2020/12/21 04:44:06;;;;;;;7.30;2.90;;;1.30;99.90;;;;;;2090224;28;20215;-60
2020/12/21 04:45:06;;;;;;;7.20;2.25;;;1.20;99.90;;;;;;2090158;28;20208;-60
2020/12/21 04:46:08;;;;;;;4.03;2.00;;;1.20;99.90;;;;;;2090154;28;20715;-60
2020/12/21 04:47:09;;;;;;;3.90;1.90;;;1.20;99.90;;;;;;2090263;28;20609;-60
2020/12/21 04:48:15;;;;;;;3.17;1.80;;;1.10;99.90;;;;;;2090041;28;20189;-60
2020/12/21 04:49:16;;;;;;;3.80;1.55;;;1.10;99.90;;;;;;2090331;28;20196;-61
2020/12/21 04:50:17;;;;;;;11.02;5.88;;;1.10;99.90;;;;;;2090163;28;20618;-61
2020/12/21 04:51:18;;;;;;;5.60;3.00;;;1.10;99.90;;;;;;2090026;28;20181;-61
2020/12/21 04:52:19;;;;;;;7.90;3.30;;;1.00;99.90;;;;;;2090009;28;20954;-61
2020/12/21 04:53:21;;;;;;;5.57;3.30;;;1.10;99.90;;;;;;2090035;28;20587;-60
2020/12/21 04:54:22;;;;;;;5.85;2.83;;;1.10;99.90;;;;;;2090210;28;20185;-61
2020/12/21 04:55:23;;;;;;;6.93;3.07;;;1.00;99.90;;;;;;2090050;28;20200;-61
2020/12/21 04:56:24;;;;;;;3.88;2.22;;;1.00;99.90;;;;;;2090181;28;20267;-61
2020/12/21 04:57:25;;;;;;;6.55;2.60;;;1.00;99.90;;;;;;2090049;28;20189;-61
2020/12/21 04:58:26;;;;;;;4.27;2.27;;;1.00;99.90;;;;;;2090189;28;20181;-59
2020/12/21 04:59:26;;;;;;;3.57;2.33;;;1.00;99.90;;;;;;2090016;28;20180;-61
2020/12/21 05:00:30;;;;;;;5.67;1.80;;;1.00;99.90;;;;;;2090100;28;20207;-59
2020/12/21 05:01:30;;;;;;;3.75;2.28;;;0.90;99.90;;;;;;2089818;28;20176;-61
2020/12/21 05:02:31;;;;;;;4.60;2.00;;;0.90;99.90;;;;;;2090212;28;20172;-61
2020/12/21 05:03:32;;;;;;;5.00;2.33;;;0.90;99.90;;;;;;2090034;28;20230;-61
2020/12/21 05:04:32;;;;;;;2.53;1.93;;;0.90;99.90;;;;;;2090109;28;20177;-61
2020/12/21 05:05:42;;;;;;;5.13;1.90;;;0.90;99.90;;;;;;2090138;28;20183;-61
2020/12/21 05:06:53;;;;;;;6.65;2.78;;;0.80;99.90;;;;;;2090239;28;20241;-61
2020/12/21 05:07:54;;;;;;;3.53;2.97;;;0.80;99.90;;;;;;2090253;28;20261;-59
2020/12/21 05:09:06;;;;;;;3.13;2.43;;;0.90;99.90;;;;;;2090235;28;20184;-60
2020/12/21 05:10:08;;;;;;;2.78;1.30;;;1.00;99.90;;;;;;2090201;28;20223;-61
2020/12/21 05:11:09;;;;;;;3.63;1.60;;;1.00;99.90;;;;;;2089909;28;20192;-61
2020/12/21 05:12:10;;;;;;;3.83;1.63;;;1.00;99.90;;;;;;2089479;28;20180;-61
2020/12/21 05:13:12;;;;;;;4.53;2.00;;;1.00;99.90;;;;;;2089508;28;20265;-61
2020/12/21 05:14:13;;;;;;;3.70;2.50;;;1.00;99.90;;;;;;2090206;28;20180;-61
2020/12/21 05:15:16;;;;;;;3.28;1.90;;;1.00;99.90;;;;;;2089943;28;20231;-61
2020/12/21 05:16:24;;;;;;;1.90;1.70;;;1.00;99.90;;;;;;2090199;28;20191;-61
2020/12/21 05:17:25;;;;;;;3.33;2.13;;;0.90;99.90;;;;;;2090142;28;20161;-60
2020/12/21 05:18:34;;;;;;;5.40;1.40;;;0.90;99.90;;;;;;2090208;28;20176;-60
2020/12/21 05:19:34;;;;;;;2.30;1.35;;;0.90;99.90;;;;;;2090122;28;20268;-61
2020/12/21 05:20:40;;;;;;;5.70;1.77;;;0.90;99.90;;;;;;2089907;28;20207;-61
2020/12/21 05:21:41;;;;;;;5.47;2.30;;;0.90;99.90;;;;;;2089906;28;20179;-60
2020/12/21 05:22:41;;;;;;;5.20;2.37;;;0.90;99.90;;;;;;2089374;28;20172;-61
2020/12/21 05:23:55;;;;;;;5.53;3.90;;;1.00;99.90;;;;;;2089331;28;20184;-60